Time;durP1;ratioP1;P1;durP2;ratioP2;P2;SDS_P1;SDS_P2;PMS_P1;PMS_P2;Temp;Humidity;BMP_temperature;BMP_pressure;BME280_temperature;BME280_humidity;BME280_pressure;Samples;Min_cycle;Max_cycle;Signal;HPM_P1;HPM_P2
2021/06/13 00:01:43;;;;;;;10.65;5.38;;;23.00;62.30;;;;;;4994797;28;20081;-53
2021/06/13 00:04:09;;;;;;;6.20;4.63;;;22.90;62.10;;;;;;5012507;28;20064;-52
2021/06/13 00:06:35;;;;;;;6.32;4.65;;;23.00;61.60;;;;;;5012806;28;20038;-56
2021/06/13 00:09:01;;;;;;;9.45;5.00;;;23.00;61.60;;;;;;5012276;28;20026;-52
2021/06/13 00:11:27;;;;;;;7.28;4.70;;;22.90;61.10;;;;;;4994973;28;20061;-51
2021/06/13 00:13:52;;;;;;;6.80;4.53;;;22.90;61.20;;;;;;4994913;28;20061;-50
2021/06/13 00:16:18;;;;;;;8.30;4.32;;;22.90;61.20;;;;;;5011654;28;20507;-54
2021/06/13 00:18:45;;;;;;;8.00;5.03;;;22.90;60.90;;;;;;5012392;28;20432;-54
2021/06/13 00:21:12;;;;;;;8.60;4.80;;;22.90;61.10;;;;;;4994250;28;20453;-55
2021/06/13 00:23:40;;;;;;;7.80;4.22;;;22.90;60.90;;;;;;4994680;28;20424;-51
2021/06/13 00:26:06;;;;;;;8.40;5.20;;;22.90;60.60;;;;;;4994255;28;20022;-55
2021/06/13 00:28:32;;;;;;;6.47;4.20;;;22.90;60.00;;;;;;4994471;28;20030;-53
2021/06/13 00:30:58;;;;;;;7.03;4.13;;;22.80;59.70;;;;;;5011700;28;20088;-54
2021/06/13 00:33:24;;;;;;;6.60;3.72;;;22.60;58.40;;;;;;5012054;28;20105;-54
2021/06/13 00:35:49;;;;;;;10.82;4.07;;;22.60;58.20;;;;;;5011876;28;20473;-52
2021/06/13 00:38:15;;;;;;;7.15;4.15;;;22.60;58.30;;;;;;5011198;28;20037;-52
2021/06/13 00:40:41;;;;;;;9.57;3.90;;;22.70;57.90;;;;;;5012105;28;20159;-53
2021/06/13 00:43:07;;;;;;;9.68;4.35;;;22.70;57.30;;;;;;4993758;28;20049;-50
2021/06/13 00:45:32;;;;;;;5.80;3.85;;;22.60;57.10;;;;;;4994400;28;20022;-53
2021/06/13 00:50:51;;;;;;;9.45;4.03;;;22.60;56.90;;;;;;5012641;28;20068;-53
2021/06/13 00:53:17;;;;;;;6.07;3.58;;;22.60;56.40;;;;;;5010887;28;20097;-55
2021/06/13 00:55:44;;;;;;;8.85;4.00;;;22.60;56.60;;;;;;5012230;28;20117;-52
2021/06/13 00:58:10;;;;;;;7.28;4.38;;;22.60;56.30;;;;;;5011888;28;20030;-55
2021/06/13 01:00:38;;;;;;;8.23;3.83;;;22.60;56.50;;;;;;4994714;28;20037;-53
2021/06/13 01:03:05;;;;;;;8.25;3.35;;;22.60;56.00;;;;;;4993717;28;20029;-52
2021/06/13 01:05:31;;;;;;;6.13;3.67;;;22.50;56.50;;;;;;5011967;28;20528;-52
2021/06/13 01:08:20;;;;;;;8.32;4.10;;;22.50;56.50;;;;;;4993859;28;20073;-55
2021/06/13 01:11:00;;;;;;;8.38;4.10;;;22.60;56.20;;;;;;4994521;28;20022;-54
2021/06/13 01:13:36;;;;;;;10.25;3.40;;;22.60;56.20;;;;;;4994663;28;20033;-54
2021/06/13 01:16:08;;;;;;;9.95;3.80;;;22.50;56.10;;;;;;4993959;28;20084;-49
2021/06/13 01:18:50;;;;;;;7.82;3.90;;;22.50;55.90;;;;;;4994739;28;20030;-52
2021/06/13 01:21:22;;;;;;;9.20;3.85;;;22.50;56.10;;;;;;5011801;28;20056;-55
2021/06/13 01:24:12;;;;;;;7.85;4.07;;;22.60;56.40;;;;;;5012286;28;20025;-55
2021/06/13 01:26:41;;;;;;;6.70;3.88;;;22.50;56.30;;;;;;5012200;28;20080;-52
2021/06/13 01:29:27;;;;;;;7.32;3.78;;;22.60;56.30;;;;;;5011339;28;20499;-53
2021/06/13 01:31:55;;;;;;;11.23;3.50;;;22.50;55.80;;;;;;5012173;28;20045;-56
2021/06/13 01:34:29;;;;;;;7.45;3.88;;;22.40;55.40;;;;;;4994026;28;20120;-52
2021/06/13 01:36:55;;;;;;;8.65;3.97;;;22.40;55.30;;;;;;5011985;28;20061;-51
2021/06/13 01:39:25;;;;;;;10.60;3.42;;;22.40;55.60;;;;;;5011629;28;20034;-53
2021/06/13 01:41:52;;;;;;;11.73;3.08;;;22.30;55.60;;;;;;5011765;28;20030;-51
2021/06/13 01:44:19;;;;;;;10.40;3.03;;;22.30;54.90;;;;;;5011505;28;20057;-53
2021/06/13 01:46:49;;;;;;;9.18;3.00;;;22.20;53.60;;;;;;4994302;28;20034;-54
2021/06/13 01:49:17;;;;;;;8.90;2.70;;;22.20;52.90;;;;;;5011613;28;20029;-51
2021/06/13 01:51:44;;;;;;;6.53;2.50;;;22.20;52.30;;;;;;5011878;28;20055;-52
2021/06/13 01:54:11;;;;;;;8.18;2.90;;;22.10;51.30;;;;;;5011499;28;20034;-51
2021/06/13 01:56:41;;;;;;;7.78;2.55;;;22.10;51.10;;;;;;5011924;28;20053;-49
2021/06/13 01:59:08;;;;;;;7.15;2.47;;;22.00;50.40;;;;;;5011329;28;20060;-50
2021/06/13 02:01:36;;;;;;;6.45;2.45;;;22.00;50.70;;;;;;4994206;28;20049;-54
2021/06/13 02:04:03;;;;;;;6.85;2.30;;;21.80;49.90;;;;;;5013114;28;20018;-53
2021/06/13 02:06:36;;;;;;;7.07;1.92;;;21.70;50.00;;;;;;4997955;28;20034;-54
2021/06/13 02:09:04;;;;;;;7.07;2.38;;;21.70;49.70;;;;;;5014770;28;20026;-51
2021/06/13 02:11:32;;;;;;;5.82;1.70;;;21.70;50.10;;;;;;5015515;28;20111;-54
2021/06/13 02:14:00;;;;;;;8.10;2.05;;;21.60;49.50;;;;;;5015368;28;20029;-55
2021/06/13 02:16:27;;;;;;;3.88;1.88;;;21.50;49.60;;;;;;5015495;28;20025;-53
2021/06/13 02:18:57;;;;;;;3.95;1.98;;;21.60;49.60;;;;;;5015245;28;20037;-52
2021/06/13 02:21:24;;;;;;;7.50;2.38;;;21.60;49.50;;;;;;5014780;28;20026;-51
2021/06/13 02:23:50;;;;;;;4.50;1.88;;;21.60;49.40;;;;;;5015126;28;20041;-51
2021/06/13 02:26:19;;;;;;;7.07;1.90;;;21.60;49.00;;;;;;5014267;28;20416;-51
2021/06/13 02:28:50;;;;;;;6.35;1.77;;;21.40;48.90;;;;;;4997407;28;20087;-49
2021/06/13 02:31:17;;;;;;;4.80;1.70;;;21.40;48.50;;;;;;4996934;28;20141;-51
2021/06/13 02:33:45;;;;;;;4.05;1.70;;;21.30;49.60;;;;;;4997291;28;20116;-47
2021/06/13 02:36:11;;;;;;;3.28;1.90;;;21.30;48.50;;;;;;5014669;28;20129;-51
2021/06/13 02:38:37;;;;;;;7.65;2.25;;;21.30;48.20;;;;;;5014800;28;20389;-53
2021/06/13 02:41:04;;;;;;;8.68;2.58;;;21.30;48.10;;;;;;4997259;28;20036;-53
2021/06/13 02:43:30;;;;;;;3.85;1.70;;;21.40;48.10;;;;;;4996752;28;20077;-49
2021/06/13 02:45:57;;;;;;;5.50;1.80;;;21.40;47.80;;;;;;5014516;28;20045;-50
2021/06/13 02:48:23;;;;;;;9.10;1.77;;;21.40;47.30;;;;;;5014095;28;20296;-53
2021/06/13 02:50:51;;;;;;;7.10;2.25;;;21.30;46.90;;;;;;5014235;28;20457;-49
2021/06/13 02:53:24;;;;;;;7.65;2.25;;;21.20;46.90;;;;;;4996035;28;20121;-51
2021/06/13 02:55:57;;;;;;;8.70;1.60;;;21.20;47.30;;;;;;5013908;28;20252;-52
2021/06/13 02:58:43;;;;;;;5.55;1.85;;;21.10;46.90;;;;;;5014014;28;20034;-55
2021/06/13 03:01:12;;;;;;;9.25;1.80;;;21.10;47.00;;;;;;5013701;28;20022;-54
2021/06/13 03:03:39;;;;;;;6.95;1.70;;;21.10;46.80;;;;;;4980626;28;20053;-53
2021/06/13 03:06:15;;;;;;;3.70;1.80;;;21.20;47.00;;;;;;5013795;28;20126;-52
2021/06/13 03:08:42;;;;;;;4.75;1.80;;;21.10;46.90;;;;;;5014227;28;20022;-56
2021/06/13 03:11:08;;;;;;;4.10;1.70;;;21.10;46.60;;;;;;5013641;28;20026;-54
2021/06/13 03:13:35;;;;;;;4.38;1.60;;;21.00;46.70;;;;;;5014214;28;20092;-53
2021/06/13 03:16:02;;;;;;;4.70;1.40;;;20.90;47.00;;;;;;5013149;28;20026;-55
2021/06/13 03:18:29;;;;;;;5.13;1.63;;;20.90;47.20;;;;;;5013326;28;20520;-53
2021/06/13 03:20:57;;;;;;;6.75;1.80;;;20.80;47.30;;;;;;5013539;28;20038;-55
2021/06/13 03:23:27;;;;;;;3.38;1.42;;;20.90;47.20;;;;;;5013108;28;20026;-51
2021/06/13 03:25:54;;;;;;;5.68;1.70;;;20.90;47.30;;;;;;4996044;28;20056;-54
2021/06/13 03:28:21;;;;;;;4.50;1.80;;;20.90;47.20;;;;;;5013318;28;20026;-53
2021/06/13 03:30:48;;;;;;;3.70;1.67;;;20.80;47.60;;;;;;5013753;28;20030;-50
2021/06/13 03:33:15;;;;;;;4.30;1.50;;;20.80;47.10;;;;;;5012736;28;20026;-51
2021/06/13 03:35:42;;;;;;;4.93;1.40;;;20.90;46.90;;;;;;5013690;28;20018;-53
2021/06/13 03:38:09;;;;;;;5.28;1.50;;;20.80;47.10;;;;;;5013145;28;20045;-48
2021/06/13 03:40:36;;;;;;;6.90;2.30;;;20.80;47.40;;;;;;5013459;28;20103;-55
2021/06/13 03:43:02;;;;;;;6.22;1.70;;;20.80;47.20;;;;;;5013471;28;20062;-54
2021/06/13 03:45:28;;;;;;;5.18;1.50;;;20.80;47.20;;;;;;5012751;28;20026;-53
2021/06/13 03:47:58;;;;;;;8.35;1.77;;;20.90;47.40;;;;;;5013623;28;20073;-49
2021/06/13 03:50:25;;;;;;;6.00;1.73;;;21.00;46.70;;;;;;5012763;28;20540;-55
2021/06/13 03:52:50;;;;;;;6.05;1.70;;;21.00;46.50;;;;;;5013327;28;20025;-53
2021/06/13 03:55:17;;;;;;;7.72;1.88;;;21.10;46.50;;;;;;5012412;28;20429;-56
2021/06/13 03:57:47;;;;;;;6.22;1.70;;;21.10;46.40;;;;;;5012973;28;20044;-53
2021/06/13 04:00:15;;;;;;;7.03;1.90;;;21.20;46.20;;;;;;5012607;28;20025;-53
2021/06/13 04:02:46;;;;;;;7.35;1.90;;;21.40;46.00;;;;;;5013320;28;20033;-53
2021/06/13 04:05:14;;;;;;;5.18;1.60;;;21.50;45.90;;;;;;5012755;28;20022;-53
2021/06/13 04:07:41;;;;;;;7.32;1.73;;;21.50;45.80;;;;;;5013157;28;20026;-57
2021/06/13 04:10:08;;;;;;;6.88;1.67;;;21.50;45.90;;;;;;5013138;28;20022;-49
2021/06/13 04:12:34;;;;;;;7.50;1.75;;;21.50;46.60;;;;;;4995073;28;20078;-53
2021/06/13 04:15:00;;;;;;;8.10;2.13;;;21.60;46.00;;;;;;5012898;28;20026;-49
2021/06/13 04:17:27;;;;;;;4.18;1.80;;;21.60;46.10;;;;;;4994720;28;20121;-52
2021/06/13 04:19:53;;;;;;;11.02;2.08;;;21.80;46.20;;;;;;5012920;28;20080;-55
2021/06/13 04:22:20;;;;;;;8.13;2.13;;;21.60;46.50;;;;;;4994552;28;20026;-53
2021/06/13 04:24:47;;;;;;;6.68;2.40;;;21.70;46.40;;;;;;4995044;28;20310;-55
2021/06/13 04:27:14;;;;;;;5.50;2.03;;;21.70;46.60;;;;;;5012155;28;20029;-54
2021/06/13 04:29:40;;;;;;;6.35;1.80;;;21.80;46.00;;;;;;5012760;28;20025;-54
2021/06/13 04:32:09;;;;;;;6.35;2.03;;;21.70;45.80;;;;;;5012148;28;20030;-54
2021/06/13 04:34:36;;;;;;;5.72;1.98;;;21.60;45.60;;;;;;5012534;28;20092;-55
2021/06/13 04:37:02;;;;;;;3.63;1.60;;;21.60;45.60;;;;;;5012739;28;20022;-55
2021/06/13 04:39:27;;;;;;;8.05;1.98;;;21.40;45.60;;;;;;5011718;28;20148;-54
2021/06/13 04:41:54;;;;;;;9.73;2.00;;;21.50;45.80;;;;;;5012356;28;20026;-56
2021/06/13 04:44:19;;;;;;;8.20;1.80;;;21.40;45.80;;;;;;5011974;28;20026;-52
2021/06/13 04:46:45;;;;;;;4.78;1.55;;;21.30;45.80;;;;;;5012400;28;20396;-54
2021/06/13 04:49:11;;;;;;;6.88;2.17;;;21.30;46.00;;;;;;5011961;28;20026;-56
2021/06/13 04:51:39;;;;;;;6.05;1.70;;;21.30;46.30;;;;;;5012563;28;20383;-54
2021/06/13 04:54:06;;;;;;;7.85;1.95;;;21.10;46.80;;;;;;5012306;28;20088;-55
2021/06/13 04:56:46;;;;;;;5.72;1.80;;;21.20;46.50;;;;;;5011896;28;20032;-54
2021/06/13 04:59:12;;;;;;;6.80;1.90;;;21.00;46.10;;;;;;5011930;28;20038;-56
2021/06/13 05:01:42;;;;;;;9.95;1.83;;;20.90;46.40;;;;;;4994337;28;20022;-54
2021/06/13 05:04:09;;;;;;;6.93;1.70;;;20.90;46.20;;;;;;5012200;28;20017;-51
2021/06/13 05:06:35;;;;;;;6.93;2.08;;;20.80;46.20;;;;;;5011975;28;20022;-54
2021/06/13 05:09:02;;;;;;;5.57;1.70;;;20.90;46.20;;;;;;5012631;28;20061;-52
2021/06/13 05:11:28;;;;;;;5.07;1.85;;;20.90;46.10;;;;;;4993877;28;20036;-50
2021/06/13 05:13:54;;;;;;;6.75;1.77;;;20.90;46.00;;;;;;4994552;28;20026;-55
2021/06/13 05:16:20;;;;;;;5.93;2.20;;;21.00;45.80;;;;;;5011384;28;20033;-51
2021/06/13 05:18:45;;;;;;;5.50;1.80;;;21.00;45.80;;;;;;5011786;28;20033;-49
2021/06/13 05:21:12;;;;;;;11.32;1.85;;;20.90;45.40;;;;;;5012388;28;20113;-53
2021/06/13 05:23:37;;;;;;;6.57;1.60;;;20.70;45.00;;;;;;5011689;28;20026;-54
2021/06/13 05:26:04;;;;;;;7.50;1.63;;;20.70;44.50;;;;;;4994534;28;20029;-52
2021/06/13 05:28:30;;;;;;;4.40;1.77;;;20.60;44.70;;;;;;5010591;28;20053;-53
2021/06/13 05:30:56;;;;;;;4.03;1.73;;;20.70;45.10;;;;;;4993709;28;20037;-53
2021/06/13 05:33:22;;;;;;;6.13;1.65;;;20.60;44.30;;;;;;5011087;28;20026;-50
2021/06/13 05:35:49;;;;;;;5.93;1.80;;;20.50;44.70;;;;;;5011453;28;20026;-53
2021/06/13 05:38:16;;;;;;;4.85;1.50;;;20.50;44.50;;;;;;5011756;28;20033;-54
2021/06/13 05:40:43;;;;;;;4.90;1.30;;;20.50;44.60;;;;;;5015563;28;20602;-55
2021/06/13 05:43:10;;;;;;;8.05;1.70;;;20.70;44.30;;;;;;5014926;28;20310;-54
2021/06/13 05:45:37;;;;;;;7.80;1.85;;;20.80;43.50;;;;;;4997050;28;20435;-52
2021/06/13 05:48:04;;;;;;;7.65;1.70;;;20.70;43.20;;;;;;5014846;28;20026;-55
2021/06/13 05:50:31;;;;;;;7.18;1.50;;;20.70;43.50;;;;;;5014472;28;20026;-55
2021/06/13 05:52:56;;;;;;;7.28;1.40;;;20.70;42.90;;;;;;5014879;28;20077;-51
2021/06/13 05:55:22;;;;;;;6.35;1.60;;;20.70;42.90;;;;;;4997130;28;20026;-53
2021/06/13 05:57:49;;;;;;;4.53;1.67;;;20.80;42.80;;;;;;5014877;28;20076;-53
2021/06/13 06:00:21;;;;;;;8.48;1.88;;;21.00;42.70;;;;;;5014543;28;20018;-51
2021/06/13 06:02:47;;;;;;;4.07;1.30;;;21.10;42.30;;;;;;5014856;28;20436;-53
2021/06/13 06:05:15;;;;;;;6.20;1.60;;;21.20;42.60;;;;;;5014724;28;20033;-54
2021/06/13 06:07:41;;;;;;;6.97;1.85;;;21.30;41.80;;;;;;5014731;28;20068;-56
2021/06/13 06:10:09;;;;;;;5.18;1.60;;;21.30;41.30;;;;;;5014793;28;20061;-55
2021/06/13 06:12:35;;;;;;;6.90;1.50;;;21.40;41.20;;;;;;4996742;28;20117;-51
2021/06/13 06:15:01;;;;;;;3.88;1.67;;;21.50;40.90;;;;;;5014744;28;20056;-51
2021/06/13 06:17:27;;;;;;;4.20;1.40;;;21.60;40.90;;;;;;5014442;28;20030;-51
2021/06/13 06:19:53;;;;;;;7.45;1.48;;;21.50;40.50;;;;;;5014340;28;20025;-52
2021/06/13 06:22:19;;;;;;;8.82;1.60;;;21.40;40.40;;;;;;5013869;28;20125;-51
2021/06/13 06:24:45;;;;;;;8.98;1.65;;;21.30;41.50;;;;;;4996772;28;20084;-54
2021/06/13 06:27:10;;;;;;;7.22;1.73;;;21.40;40.80;;;;;;5014333;28;20464;-50
2021/06/13 06:29:36;;;;;;;8.32;1.80;;;21.40;40.60;;;;;;4996506;28;20156;-52
2021/06/13 06:32:02;;;;;;;3.53;1.40;;;21.40;40.50;;;;;;5014289;28;20029;-53
2021/06/13 06:34:28;;;;;;;7.40;1.90;;;21.60;40.20;;;;;;5013766;28;20030;-54
2021/06/13 06:36:54;;;;;;;9.32;1.88;;;21.70;40.10;;;;;;5014030;28;20492;-52
2021/06/13 06:39:20;;;;;;;3.72;1.50;;;21.80;39.90;;;;;;5013432;28;20030;-50
2021/06/13 06:41:48;;;;;;;5.53;1.65;;;21.80;40.00;;;;;;5014234;28;20113;-55
2021/06/13 06:44:14;;;;;;;6.35;1.70;;;21.90;39.20;;;;;;4996395;28;20117;-53
2021/06/13 06:46:40;;;;;;;7.97;1.50;;;22.00;39.00;;;;;;5014313;28;20032;-52
2021/06/13 06:49:06;;;;;;;10.25;2.17;;;22.10;38.20;;;;;;4996234;28;20384;-54
2021/06/13 06:51:33;;;;;;;5.05;1.77;;;23.20;37.70;;;;;;5012695;28;20030;-52
2021/06/13 06:53:59;;;;;;;4.45;1.92;;;27.00;34.10;;;;;;5013881;28;20025;-52
2021/06/13 06:56:25;;;;;;;7.30;2.05;;;30.90;28.60;;;;;;5013490;28;20080;-51
2021/06/13 06:58:51;;;;;;;4.32;1.88;;;33.50;26.50;;;;;;4996245;28;20038;-53
2021/06/13 07:01:17;;;;;;;6.35;1.75;;;35.40;25.10;;;;;;4980163;28;20030;-51
2021/06/13 07:03:43;;;;;;;7.65;1.90;;;36.60;24.30;;;;;;5014365;28;20380;-49
2021/06/13 07:06:09;;;;;;;7.30;2.05;;;37.80;23.60;;;;;;5014367;28;20445;-55
2021/06/13 07:08:34;;;;;;;4.40;1.80;;;38.70;23.10;;;;;;4996316;28;20030;-56
2021/06/13 07:11:00;;;;;;;7.00;2.13;;;39.40;22.30;;;;;;4996667;28;20057;-51
2021/06/13 07:13:26;;;;;;;7.70;2.20;;;39.50;21.90;;;;;;4996477;28;20037;-57
2021/06/13 07:15:52;;;;;;;6.70;1.83;;;40.30;21.90;;;;;;4996644;28;20030;-54
2021/06/13 07:18:17;;;;;;;4.65;1.80;;;41.60;21.40;;;;;;5013471;28;20116;-52
2021/06/13 07:20:43;;;;;;;6.63;2.22;;;42.50;21.10;;;;;;4996580;28;20026;-53
2021/06/13 07:23:09;;;;;;;5.78;2.53;;;43.60;20.50;;;;;;4996441;28;20025;-56
2021/06/13 07:25:36;;;;;;;4.28;2.20;;;44.00;20.10;;;;;;5012903;28;20033;-54
2021/06/13 07:28:04;;;;;;;6.32;2.65;;;42.50;20.30;;;;;;4995792;28;20056;-57
2021/06/13 07:30:30;;;;;;;5.78;2.33;;;42.90;20.30;;;;;;4995714;28;20030;-56
2021/06/13 07:32:56;;;;;;;7.63;2.80;;;42.50;20.00;;;;;;4996165;28;20065;-55
2021/06/13 07:35:22;;;;;;;7.50;2.67;;;42.90;20.00;;;;;;4995531;28;20121;-56
2021/06/13 07:37:48;;;;;;;4.25;2.35;;;44.00;19.90;;;;;;5013606;28;20532;-56
2021/06/13 07:40:15;;;;;;;5.60;2.28;;;44.60;19.50;;;;;;5013550;28;20022;-52
2021/06/13 07:42:42;;;;;;;4.45;2.40;;;44.20;19.60;;;;;;5012881;28;20050;-54
2021/06/13 07:45:11;;;;;;;6.05;2.13;;;44.20;19.30;;;;;;5013691;28;20037;-50
2021/06/13 07:47:37;;;;;;;6.40;2.50;;;44.10;19.50;;;;;;5013449;28;20030;-57
2021/06/13 07:50:05;;;;;;;5.63;2.40;;;44.60;19.70;;;;;;4995884;28;20038;-58
2021/06/13 07:52:31;;;;;;;5.40;2.67;;;45.40;19.40;;;;;;5013292;28;20033;-57
2021/06/13 07:54:58;;;;;;;6.25;2.63;;;44.10;19.10;;;;;;5013466;28;20022;-59
2021/06/13 07:57:23;;;;;;;6.53;2.70;;;43.80;19.70;;;;;;4995175;28;20033;-58
2021/06/13 07:59:49;;;;;;;5.15;2.40;;;44.10;19.50;;;;;;4995572;28;20030;-59
2021/06/13 08:02:15;;;;;;;8.73;2.85;;;45.70;19.30;;;;;;4995237;28;20464;-59
2021/06/13 08:04:49;;;;;;;9.95;2.50;;;46.90;18.90;;;;;;5013008;28;20168;-58
2021/06/13 08:07:17;;;;;;;7.70;3.03;;;46.70;18.70;;;;;;5013428;28;20195;-58
2021/06/13 08:09:43;;;;;;;6.53;2.97;;;47.20;18.40;;;;;;4995121;28;20414;-58
2021/06/13 08:12:11;;;;;;;7.25;2.95;;;47.70;18.50;;;;;;4995452;28;20112;-58
2021/06/13 08:14:37;;;;;;;5.18;3.00;;;48.60;18.20;;;;;;5012474;28;20018;-58
2021/06/13 08:17:03;;;;;;;4.60;3.20;;;48.80;18.10;;;;;;4995255;28;20108;-57
2021/06/13 08:19:29;;;;;;;5.85;2.97;;;48.40;18.00;;;;;;4994851;28;20491;-54
2021/06/13 08:21:56;;;;;;;5.03;1.80;;;48.80;18.20;;;;;;4995156;28;20030;-57
2021/06/13 08:24:22;;;;;;;7.20;4.57;;;48.70;17.80;;;;;;4994254;28;20563;-56
2021/06/13 08:26:47;;;;;;;6.72;2.00;;;47.20;17.90;;;;;;5012187;28;20030;-54
2021/06/13 08:29:14;;;;;;;5.75;3.60;;;46.60;18.30;;;;;;4994278;28;20033;-57
2021/06/13 08:31:40;;;;;;;3.85;2.92;;;46.60;18.40;;;;;;5012319;28;20108;-56
2021/06/13 08:34:07;;;;;;;4.82;3.28;;;47.40;18.30;;;;;;4994551;28;20069;-57
2021/06/13 08:37:08;;;;;;;5.55;3.47;;;48.00;18.10;;;;;;5011489;28;20129;-57
2021/06/13 08:39:47;;;;;;;7.15;3.20;;;48.00;17.90;;;;;;4993671;28;20121;-57
2021/06/13 08:42:18;;;;;;;7.80;3.95;;;48.50;17.90;;;;;;5010593;28;20295;-56
2021/06/13 08:44:44;;;;;;;6.25;3.75;;;46.30;18.10;;;;;;4994342;28;20034;-58
2021/06/13 08:47:29;;;;;;;6.00;2.28;;;46.50;18.20;;;;;;5011564;28;20037;-57
2021/06/13 08:49:54;;;;;;;8.98;4.63;;;47.20;18.10;;;;;;4994543;28;20026;-54
2021/06/13 08:52:20;;;;;;;4.68;1.88;;;45.40;18.30;;;;;;4993712;28;20037;-57
2021/06/13 08:54:52;;;;;;;5.75;3.47;;;45.40;18.50;;;;;;4994368;28;20041;-60
2021/06/13 08:57:18;;;;;;;4.70;3.40;;;44.70;18.80;;;;;;4993319;28;20030;-57
2021/06/13 08:59:45;;;;;;;7.90;4.57;;;43.80;19.00;;;;;;4977909;28;20026;-57
2021/06/13 09:02:11;;;;;;;5.68;3.90;;;44.50;18.90;;;;;;5011571;28;20054;-57
2021/06/13 09:04:37;;;;;;;4.38;3.30;;;44.30;18.80;;;;;;5012050;28;20124;-58
2021/06/13 09:07:15;;;;;;;6.40;2.70;;;44.40;18.90;;;;;;5007632;28;20088;-56
2021/06/13 09:09:41;;;;;;;5.00;2.20;;;45.20;18.60;;;;;;5010565;28;20129;-49
2021/06/13 09:12:07;;;;;;;6.03;2.92;;;43.80;18.70;;;;;;4993666;28;20060;-50
2021/06/13 09:14:44;;;;;;;4.28;2.05;;;42.40;19.30;;;;;;5010895;28;20036;-51
2021/06/13 09:17:18;;;;;;;8.23;1.70;;;42.30;19.20;;;;;;5011910;28;20055;-51
2021/06/13 09:20:06;;;;;;;3.72;1.63;;;40.80;19.70;;;;;;4993230;28;20515;-54
2021/06/13 09:22:32;;;;;;;5.03;1.65;;;39.00;20.30;;;;;;4994764;28;20029;-52
2021/06/13 09:25:13;;;;;;;6.40;1.70;;;36.80;21.20;;;;;;5011716;28;20159;-56
2021/06/13 09:27:41;;;;;;;6.35;1.90;;;35.10;22.30;;;;;;5011407;28;20029;-52
2021/06/13 09:30:09;;;;;;;6.60;1.65;;;34.20;23.00;;;;;;5011116;28;20026;-54
2021/06/13 09:33:07;;;;;;;4.38;1.48;;;33.20;23.60;;;;;;4993186;28;20104;-54
2021/06/13 09:35:33;;;;;;;7.28;2.13;;;32.30;24.40;;;;;;4970747;28;20085;-51
2021/06/13 09:38:07;;;;;;;7.60;1.52;;;31.40;25.10;;;;;;5011534;28;20050;-54
2021/06/13 09:40:33;;;;;;;5.65;1.60;;;30.80;25.40;;;;;;5010741;28;20040;-54
2021/06/13 09:43:16;;;;;;;4.00;1.67;;;30.20;26.00;;;;;;4993755;28;20093;-56
2021/06/13 09:45:47;;;;;;;5.67;1.90;;;29.70;26.50;;;;;;5011421;28;20084;-55
2021/06/13 09:48:13;;;;;;;5.45;1.58;;;29.40;26.80;;;;;;5010582;28;20265;-55
2021/06/13 09:50:46;;;;;;;5.68;1.77;;;29.40;26.90;;;;;;4993502;28;20105;-58
2021/06/13 09:53:32;;;;;;;7.35;2.10;;;29.30;27.10;;;;;;4993450;28;20064;-56
2021/06/13 09:56:09;;;;;;;5.90;1.92;;;29.20;27.40;;;;;;4993333;28;20032;-57
2021/06/13 09:58:44;;;;;;;4.22;1.50;;;29.00;27.10;;;;;;5010862;28;20041;-49
2021/06/13 10:01:10;;;;;;;7.65;1.83;;;29.00;27.20;;;;;;4993109;28;20076;-54
2021/06/13 10:03:39;;;;;;;6.70;1.50;;;28.80;27.40;;;;;;4993182;28;20414;-59
2021/06/13 10:06:07;;;;;;;5.70;1.52;;;28.50;27.50;;;;;;5011380;28;20046;-57
2021/06/13 10:08:34;;;;;;;7.47;1.60;;;28.20;27.80;;;;;;5010253;28;20235;-57
2021/06/13 10:11:02;;;;;;;6.75;1.70;;;27.80;28.30;;;;;;4993327;28;20119;-52
2021/06/13 10:13:57;;;;;;;4.95;1.90;;;27.80;28.50;;;;;;4988454;28;20058;-57
2021/06/13 10:16:25;;;;;;;7.03;1.60;;;27.50;28.60;;;;;;4989616;28;20033;-55
2021/06/13 10:19:13;;;;;;;7.78;1.80;;;27.20;29.40;;;;;;5007862;28;20535;-56
2021/06/13 10:21:42;;;;;;;3.67;1.50;;;26.60;29.60;;;;;;5009044;28;20040;-58
2021/06/13 10:24:23;;;;;;;5.82;1.70;;;26.60;29.50;;;;;;4991484;28;20416;-53
2021/06/13 10:26:54;;;;;;;6.72;1.60;;;26.60;29.10;;;;;;4993220;28;20366;-57
2021/06/13 10:29:22;;;;;;;4.53;1.42;;;26.60;29.30;;;;;;4993697;28;20083;-55
2021/06/13 10:31:50;;;;;;;6.78;1.73;;;26.80;29.60;;;;;;5012959;28;20030;-56
2021/06/13 10:34:18;;;;;;;11.13;1.80;;;26.70;29.50;;;;;;5012210;28;20167;-56
2021/06/13 10:36:44;;;;;;;3.92;1.50;;;26.30;29.60;;;;;;5011619;28;20122;-57
2021/06/13 10:39:13;;;;;;;7.45;1.60;;;26.30;29.20;;;;;;4993887;28;20112;-59
2021/06/13 10:41:40;;;;;;;7.28;1.88;;;26.20;29.30;;;;;;5011096;28;20025;-53
2021/06/13 10:44:12;;;;;;;4.35;1.88;;;26.20;29.30;;;;;;5006223;28;20089;-55
2021/06/13 10:46:40;;;;;;;4.95;2.00;;;26.20;29.60;;;;;;5006432;28;20061;-57
2021/06/13 10:49:10;;;;;;;7.05;2.80;;;26.50;29.50;;;;;;4995572;28;20041;-57
2021/06/13 10:51:37;;;;;;;4.05;1.52;;;26.70;29.20;;;;;;5006401;28;20034;-57
2021/06/13 10:54:21;;;;;;;6.72;2.08;;;26.40;29.00;;;;;;4984511;28;20030;-54
2021/06/13 10:56:53;;;;;;;4.85;1.83;;;26.40;29.20;;;;;;5009458;28;20072;-51
2021/06/13 10:59:20;;;;;;;8.95;1.75;;;26.50;29.10;;;;;;4995565;28;20064;-55
2021/06/13 11:02:17;;;;;;;4.45;1.58;;;26.40;29.30;;;;;;5013351;28;20456;-53
2021/06/13 11:04:52;;;;;;;8.10;1.83;;;26.50;29.40;;;;;;5009334;28;20034;-52
2021/06/13 11:07:30;;;;;;;6.75;1.98;;;26.50;29.50;;;;;;4992725;28;20048;-54
2021/06/13 11:10:06;;;;;;;6.45;1.67;;;26.60;29.20;;;;;;5010486;28;20029;-52
2021/06/13 11:12:58;;;;;;;5.45;1.67;;;26.70;29.30;;;;;;5010876;28;20022;-52
2021/06/13 11:15:39;;;;;;;6.80;1.63;;;26.60;28.90;;;;;;5010167;28;20054;-53
2021/06/13 11:18:26;;;;;;;11.15;1.50;;;26.60;29.00;;;;;;5008270;28;20037;-52
2021/06/13 11:21:07;;;;;;;5.63;2.03;;;26.60;28.90;;;;;;5010253;28;20026;-52
2021/06/13 11:23:32;;;;;;;6.68;1.88;;;26.50;28.90;;;;;;5009885;28;20021;-49
2021/06/13 11:26:00;;;;;;;11.23;1.90;;;26.40;29.30;;;;;;4995369;28;20033;-54
2021/06/13 11:28:46;;;;;;;5.05;2.17;;;26.40;29.10;;;;;;4990247;28;20029;-50
2021/06/13 11:31:13;;;;;;;5.18;1.70;;;26.40;29.10;;;;;;5010355;28;20065;-54
2021/06/13 11:33:43;;;;;;;10.88;2.53;;;26.40;29.60;;;;;;4992576;28;20030;-55
2021/06/13 11:36:18;;;;;;;5.80;1.77;;;26.40;29.20;;;;;;5009404;28;20044;-52
2021/06/13 11:39:07;;;;;;;4.55;1.60;;;26.50;29.00;;;;;;5010753;28;20077;-60
2021/06/13 11:41:39;;;;;;;6.38;2.15;;;26.30;29.30;;;;;;4984040;28;20056;-54
2021/06/13 11:44:07;;;;;;;13.60;6.95;;;26.30;29.40;;;;;;4992130;28;20053;-53
2021/06/13 11:46:39;;;;;;;11.93;7.05;;;26.30;28.90;;;;;;5009028;28;20110;-55
2021/06/13 11:49:07;;;;;;;7.93;1.67;;;26.20;29.20;;;;;;5009500;28;20520;-55
2021/06/13 11:51:49;;;;;;;5.22;1.77;;;26.20;29.40;;;;;;4991833;28;20030;-55
2021/06/13 11:54:35;;;;;;;5.03;1.95;;;26.30;29.10;;;;;;5011349;28;20037;-52
2021/06/13 11:57:05;;;;;;;5.43;1.67;;;26.10;29.30;;;;;;5010990;28;20076;-57
2021/06/13 11:59:33;;;;;;;5.55;2.20;;;26.10;29.20;;;;;;5009090;28;20120;-52
2021/06/13 12:02:01;;;;;;;6.10;2.00;;;26.10;29.40;;;;;;4992309;28;20026;-55
2021/06/13 12:04:28;;;;;;;5.32;2.22;;;26.10;29.40;;;;;;4975265;28;20050;-52
2021/06/13 12:06:58;;;;;;;5.53;1.77;;;26.10;29.80;;;;;;4992009;28;20315;-53
2021/06/13 12:09:25;;;;;;;6.07;2.00;;;26.20;29.40;;;;;;4992523;28;20026;-54
2021/06/13 12:11:53;;;;;;;5.32;1.70;;;26.40;29.00;;;;;;4991366;28;20037;-56
2021/06/13 12:14:29;;;;;;;6.47;1.80;;;26.30;28.80;;;;;;4990744;28;20030;-55
2021/06/13 12:17:04;;;;;;;10.07;2.30;;;26.50;28.80;;;;;;5008731;28;20099;-54
2021/06/13 12:19:44;;;;;;;7.78;2.30;;;26.60;28.90;;;;;;5008174;28;20037;-53
2021/06/13 12:22:18;;;;;;;4.70;1.60;;;26.40;29.00;;;;;;5010832;28;20128;-53
2021/06/13 12:27:22;;;;;;;6.53;2.05;;;26.60;29.00;;;;;;5008747;28;20159;-56
2021/06/13 12:29:56;;;;;;;7.68;1.75;;;26.70;28.90;;;;;;4993598;28;20073;-50
2021/06/13 12:32:23;;;;;;;10.25;3.10;;;26.80;28.50;;;;;;4976169;28;20056;-55
2021/06/13 12:34:55;;;;;;;4.80;1.73;;;26.80;28.50;;;;;;5011394;28;20026;-55
2021/06/13 12:37:23;;;;;;;7.47;1.65;;;26.80;28.50;;;;;;4993058;28;20025;-52
2021/06/13 12:39:56;;;;;;;5.25;2.00;;;26.90;28.50;;;;;;4993756;28;20350;-53
2021/06/13 12:42:22;;;;;;;6.80;1.90;;;26.90;28.50;;;;;;5011110;28;20046;-53
2021/06/13 12:44:59;;;;;;;5.70;1.50;;;27.00;28.40;;;;;;5011306;28;20056;-54
2021/06/13 12:47:25;;;;;;;9.50;1.90;;;27.10;28.50;;;;;;5010492;28;20113;-56
2021/06/13 12:49:52;;;;;;;9.02;2.70;;;27.20;28.40;;;;;;5011275;28;20108;-54
2021/06/13 12:52:19;;;;;;;8.65;2.30;;;27.20;28.20;;;;;;4993611;28;20123;-65
2021/06/13 12:55:00;;;;;;;7.78;3.22;;;27.30;28.10;;;;;;5012277;28;20053;-65
2021/06/13 12:57:26;;;;;;;7.43;2.70;;;27.20;28.30;;;;;;5010757;28;20022;-67
2021/06/13 12:59:53;;;;;;;7.78;2.30;;;27.10;28.40;;;;;;5011661;28;20025;-68
2021/06/13 13:02:20;;;;;;;9.45;3.13;;;27.00;28.20;;;;;;4987395;28;20026;-65